Time;durP1;ratioP1;P1;durP2;ratioP2;P2;SDS_P1;SDS_P2;PMS_P1;PMS_P2;Temp;Humidity;BMP_temperature;BMP_pressure;BME280_temperature;BME280_humidity;BME280_pressure;Samples;Min_cycle;Max_cycle;Signal;HPM_P1;HPM_P2
2023/03/20 00:00:23;;;;;;;24.53;16.90;;;9.20;99.90;;;;;;5086985;28;21230;-69
2023/03/20 00:02:50;;;;;;;28.30;17.57;;;9.10;99.90;;;;;;5088643;28;20462;-68
2023/03/20 00:05:20;;;;;;;24.90;18.17;;;9.10;99.90;;;;;;5090825;28;20857;-68
2023/03/20 00:07:48;;;;;;;23.80;17.13;;;9.10;99.90;;;;;;5092728;28;20466;-69
2023/03/20 00:10:17;;;;;;;18.70;15.70;;;9.10;99.90;;;;;;5090879;28;20515;-68
2023/03/20 00:12:47;;;;;;;22.20;16.33;;;9.20;99.90;;;;;;5087969;28;20462;-70
2023/03/20 00:15:36;;;;;;;22.40;16.10;;;9.10;99.90;;;;;;5098214;28;20453;-69
2023/03/20 00:18:04;;;;;;;24.83;17.57;;;9.00;99.90;;;;;;5089309;28;20539;-68
2023/03/20 00:20:31;;;;;;;26.63;17.47;;;9.00;99.90;;;;;;5093214;28;20478;-70
2023/03/20 00:22:57;;;;;;;24.77;17.17;;;9.10;99.90;;;;;;5094105;28;20833;-69
2023/03/20 00:25:27;;;;;;;28.67;17.93;;;9.10;99.90;;;;;;5093009;28;20461;-71
2023/03/20 00:27:54;;;;;;;21.20;16.30;;;9.00;99.90;;;;;;5092546;28;20835;-70
2023/03/20 00:30:25;;;;;;;24.00;17.33;;;9.00;99.90;;;;;;5095462;28;20502;-69
2023/03/20 00:32:52;;;;;;;24.10;17.10;;;9.00;99.90;;;;;;5087394;28;20615;-69
2023/03/20 00:35:26;;;;;;;25.00;17.07;;;9.10;99.90;;;;;;5095347;28;20728;-69
2023/03/20 00:37:54;;;;;;;23.60;17.37;;;9.00;99.90;;;;;;5094834;28;20798;-71
2023/03/20 00:40:21;;;;;;;23.87;18.00;;;9.00;99.90;;;;;;5091003;28;20482;-69
2023/03/20 00:42:53;;;;;;;24.23;17.43;;;9.00;99.90;;;;;;5094309;28;20568;-69
2023/03/20 00:45:21;;;;;;;20.90;16.83;;;9.10;99.90;;;;;;5094884;28;20476;-69
2023/03/20 00:47:50;;;;;;;21.27;17.60;;;9.10;99.90;;;;;;5094854;28;21015;-69
2023/03/20 00:50:19;;;;;;;26.20;17.30;;;9.10;99.90;;;;;;5086503;28;21061;-69
2023/03/20 00:52:46;;;;;;;23.63;17.80;;;9.10;99.90;;;;;;5092348;28;20483;-69
2023/03/20 00:55:13;;;;;;;22.53;18.30;;;9.20;99.90;;;;;;5088959;28;20983;-69
2023/03/20 00:57:44;;;;;;;23.53;16.50;;;9.10;99.90;;;;;;5094461;28;20458;-69
2023/03/20 01:00:23;;;;;;;20.67;17.20;;;9.10;99.90;;;;;;5092828;28;20468;-70
2023/03/20 01:02:52;;;;;;;22.80;16.50;;;9.10;99.90;;;;;;5095687;28;20511;-69
2023/03/20 01:05:19;;;;;;;22.30;17.53;;;9.10;99.90;;;;;;5086925;28;20952;-69
2023/03/20 01:07:47;;;;;;;21.50;16.33;;;9.00;99.90;;;;;;5090882;28;21035;-71
2023/03/20 01:10:14;;;;;;;23.23;16.47;;;9.00;99.90;;;;;;5093479;28;20865;-70
2023/03/20 01:12:42;;;;;;;21.93;16.83;;;9.00;99.90;;;;;;5093829;28;20462;-69
2023/03/20 01:15:18;;;;;;;21.10;16.37;;;9.00;99.90;;;;;;5092895;28;20461;-69
2023/03/20 01:17:46;;;;;;;18.90;15.93;;;8.90;99.90;;;;;;5095011;28;20474;-69
2023/03/20 01:20:20;;;;;;;18.63;16.00;;;8.90;99.90;;;;;;5091733;28;20462;-70
2023/03/20 01:22:47;;;;;;;23.73;16.40;;;8.70;99.90;;;;;;5093651;28;20462;-69
2023/03/20 01:25:15;;;;;;;20.90;16.00;;;8.60;99.90;;;;;;5094769;28;20810;-72
2023/03/20 01:27:44;;;;;;;23.60;15.60;;;8.60;99.90;;;;;;5094075;28;20454;-70
2023/03/20 01:30:20;;;;;;;22.80;18.33;;;8.50;99.90;;;;;;5092455;28;20467;-68
2023/03/20 01:32:48;;;;;;;19.97;16.10;;;8.40;99.90;;;;;;5088718;28;20461;-68
2023/03/20 01:35:17;;;;;;;20.93;15.77;;;8.30;99.90;;;;;;5093013;28;20466;-69
2023/03/20 01:37:44;;;;;;;20.03;16.77;;;8.20;99.90;;;;;;5088374;28;20465;-71
2023/03/20 01:40:23;;;;;;;20.00;15.80;;;8.10;99.90;;;;;;5087968;28;20469;-69
2023/03/20 01:42:50;;;;;;;22.60;15.97;;;8.10;99.90;;;;;;5090201;28;20509;-70
2023/03/20 01:45:19;;;;;;;25.60;17.20;;;8.00;99.90;;;;;;5086696;28;20462;-69
2023/03/20 01:47:46;;;;;;;21.27;17.23;;;7.90;99.90;;;;;;5089566;28;20507;-71
2023/03/20 01:50:26;;;;;;;21.80;16.10;;;7.80;99.90;;;;;;5094787;28;20454;-68
2023/03/20 01:52:59;;;;;;;24.40;17.20;;;7.70;99.90;;;;;;5098714;28;20465;-69
2023/03/20 01:55:26;;;;;;;22.60;16.37;;;7.60;99.90;;;;;;5088070;28;20860;-69
2023/03/20 01:57:55;;;;;;;25.23;17.10;;;7.50;99.90;;;;;;5094189;28;20469;-69
2023/03/20 02:00:22;;;;;;;21.67;17.23;;;7.50;99.90;;;;;;5093143;28;20503;-69
2023/03/20 02:02:49;;;;;;;26.20;17.17;;;7.40;99.90;;;;;;5088697;28;20489;-69
2023/03/20 02:05:20;;;;;;;25.40;18.40;;;7.40;99.90;;;;;;5094379;28;20466;-69
2023/03/20 02:07:55;;;;;;;24.17;16.83;;;7.20;99.90;;;;;;5091804;28;20486;-70
2023/03/20 02:10:23;;;;;;;29.37;17.37;;;7.30;99.90;;;;;;5089928;28;20458;-68
2023/03/20 02:12:51;;;;;;;24.30;16.57;;;7.30;99.90;;;;;;5089247;28;20467;-72
2023/03/20 02:15:18;;;;;;;29.30;16.10;;;7.30;99.90;;;;;;5087694;28;20454;-72
2023/03/20 02:17:46;;;;;;;27.27;18.30;;;7.30;99.90;;;;;;5090943;28;20453;-69
2023/03/20 02:20:21;;;;;;;27.90;17.33;;;7.30;99.90;;;;;;5095311;28;20473;-69
2023/03/20 02:23:19;;;;;;;28.93;16.73;;;7.30;99.90;;;;;;5087789;28;20496;-69
2023/03/20 02:26:14;;;;;;;28.20;18.20;;;7.30;99.90;;;;;;5087487;28;20474;-71
2023/03/20 02:29:32;;;;;;;28.10;16.33;;;7.20;99.90;;;;;;5086653;28;20545;-70
2023/03/20 02:32:41;;;;;;;24.20;18.00;;;7.10;99.90;;;;;;5046577;28;20469;-71
2023/03/20 02:35:32;;;;;;;22.97;16.17;;;7.00;99.90;;;;;;5043549;28;20816;-70
2023/03/20 02:38:34;;;;;;;24.50;16.37;;;6.90;99.90;;;;;;5083483;28;20475;-69
2023/03/20 02:41:06;;;;;;;28.80;16.57;;;6.70;99.90;;;;;;5095181;28;20482;-71
2023/03/20 02:43:42;;;;;;;24.73;16.53;;;6.70;99.90;;;;;;5097813;28;20570;-69
2023/03/20 02:46:19;;;;;;;24.50;15.90;;;6.70;99.90;;;;;;5088685;28;20462;-70
2023/03/20 02:48:54;;;;;;;20.73;15.67;;;6.70;99.90;;;;;;5088710;28;20461;-71
2023/03/20 02:51:28;;;;;;;19.87;14.53;;;6.50;99.90;;;;;;5093685;28;20461;-71
2023/03/20 02:54:07;;;;;;;25.40;14.97;;;6.50;99.90;;;;;;5093931;28;20460;-70
2023/03/20 02:56:37;;;;;;;22.77;15.07;;;6.50;99.90;;;;;;5099531;28;20664;-70
2023/03/20 02:59:12;;;;;;;21.67;15.80;;;6.50;99.90;;;;;;5090120;28;20485;-71
2023/03/20 03:01:43;;;;;;;21.03;14.33;;;6.50;99.90;;;;;;5088791;28;20493;-69
2023/03/20 03:04:13;;;;;;;18.50;13.70;;;6.50;99.90;;;;;;5091541;28;20573;-68
2023/03/20 03:06:43;;;;;;;21.60;14.90;;;6.50;99.90;;;;;;5096130;28;20466;-71
2023/03/20 03:09:16;;;;;;;21.83;14.80;;;6.50;99.90;;;;;;5093132;28;20463;-69
2023/03/20 03:11:48;;;;;;;22.40;13.80;;;6.50;99.90;;;;;;5092505;28;20918;-69
2023/03/20 03:14:19;;;;;;;27.37;14.77;;;6.60;99.90;;;;;;5091615;28;23105;-69
2023/03/20 03:16:49;;;;;;;23.00;14.23;;;6.50;99.90;;;;;;5093219;28;20461;-68
2023/03/20 03:19:19;;;;;;;21.83;15.00;;;6.50;99.90;;;;;;5096892;28;20555;-71
2023/03/20 03:21:47;;;;;;;20.50;14.70;;;6.50;99.90;;;;;;5097737;28;20497;-69
2023/03/20 03:24:29;;;;;;;20.17;14.80;;;6.40;99.90;;;;;;5094007;28;20820;-70
2023/03/20 03:26:58;;;;;;;18.23;14.00;;;6.40;99.90;;;;;;5093085;28;20819;-69
2023/03/20 03:29:29;;;;;;;26.10;14.57;;;6.40;99.90;;;;;;5093617;28;20551;-70
2023/03/20 03:31:56;;;;;;;24.80;15.27;;;6.30;99.90;;;;;;5090704;28;20493;-71
2023/03/20 03:34:24;;;;;;;18.97;13.00;;;6.20;99.90;;;;;;5086229;28;20458;-68
2023/03/20 03:36:56;;;;;;;18.43;14.10;;;6.10;99.90;;;;;;5089954;28;20536;-68
2023/03/20 03:39:32;;;;;;;20.47;12.80;;;6.10;99.90;;;;;;5097241;28;20744;-71
2023/03/20 03:42:07;;;;;;;25.13;14.03;;;6.10;99.90;;;;;;5099750;28;20500;-69
2023/03/20 03:44:41;;;;;;;18.07;12.80;;;6.10;99.90;;;;;;5088777;28;20474;-68
2023/03/20 03:47:12;;;;;;;15.87;11.50;;;6.20;99.90;;;;;;5091037;28;21083;-72
2023/03/20 03:49:43;;;;;;;16.50;12.00;;;6.20;99.90;;;;;;5097712;28;20465;-70
2023/03/20 03:52:15;;;;;;;19.77;11.63;;;6.20;99.90;;;;;;5096363;28;20461;-69
2023/03/20 03:54:47;;;;;;;18.93;12.60;;;6.30;99.90;;;;;;5091585;28;20460;-69
2023/03/20 03:57:17;;;;;;;22.67;13.17;;;6.30;99.90;;;;;;5095662;28;20462;-71
2023/03/20 03:59:48;;;;;;;18.70;13.03;;;6.40;99.90;;;;;;5094983;28;20460;-71
2023/03/20 04:02:18;;;;;;;18.77;12.77;;;6.40;99.90;;;;;;5087770;28;20511;-70
2023/03/20 04:04:48;;;;;;;18.53;13.80;;;6.50;99.90;;;;;;5089028;28;20578;-69
2023/03/20 04:07:16;;;;;;;20.43;15.20;;;6.50;99.90;;;;;;5090029;28;20481;-68
2023/03/20 04:09:44;;;;;;;23.90;13.97;;;6.50;99.90;;;;;;5090349;28;20453;-71
2023/03/20 04:12:33;;;;;;;24.83;15.40;;;6.50;99.90;;;;;;5089537;28;20464;-71
2023/03/20 04:15:00;;;;;;;22.30;14.67;;;6.50;99.90;;;;;;5087470;28;20469;-69
2023/03/20 04:17:27;;;;;;;27.17;15.27;;;6.40;99.90;;;;;;5092397;28;20466;-68
2023/03/20 04:19:54;;;;;;;19.40;14.37;;;6.40;99.90;;;;;;5090315;28;21149;-69
2023/03/20 04:22:21;;;;;;;24.27;14.87;;;6.40;99.90;;;;;;5086594;28;20476;-69
2023/03/20 04:24:50;;;;;;;23.40;14.33;;;6.40;99.90;;;;;;5102729;28;20457;-69
2023/03/20 04:27:16;;;;;;;22.53;16.13;;;6.40;99.90;;;;;;5091249;28;20564;-69
2023/03/20 04:29:44;;;;;;;27.00;15.70;;;6.40;99.90;;;;;;5093983;28;20493;-69
2023/03/20 04:32:11;;;;;;;25.57;14.60;;;6.40;99.90;;;;;;5088726;28;20557;-72
2023/03/20 04:34:38;;;;;;;25.23;15.60;;;6.40;99.90;;;;;;5094332;28;20460;-70
2023/03/20 04:37:07;;;;;;;21.77;14.20;;;6.30;99.90;;;;;;5095095;28;20471;-69
2023/03/20 04:39:34;;;;;;;25.40;16.00;;;6.30;99.90;;;;;;5095621;28;20567;-71
2023/03/20 04:42:02;;;;;;;26.57;15.60;;;6.20;99.90;;;;;;5086873;28;20486;-70
2023/03/20 04:44:29;;;;;;;28.50;16.50;;;6.20;99.90;;;;;;5085698;28;20465;-69
2023/03/20 04:46:56;;;;;;;26.77;16.23;;;6.20;99.90;;;;;;5089483;28;20456;-70
2023/03/20 04:49:23;;;;;;;28.03;15.23;;;6.10;99.90;;;;;;5096409;28;20469;-69
2023/03/20 04:51:50;;;;;;;22.10;14.40;;;6.10;99.90;;;;;;5087437;28;20501;-71
2023/03/20 04:54:16;;;;;;;24.90;14.67;;;6.10;99.90;;;;;;5098114;28;20464;-70
2023/03/20 04:56:43;;;;;;;21.90;15.17;;;6.00;99.90;;;;;;5092520;28;20545;-68
2023/03/20 04:59:11;;;;;;;29.70;17.07;;;6.00;99.90;;;;;;5092132;28;20457;-71
2023/03/20 05:01:39;;;;;;;24.80;16.17;;;6.00;99.90;;;;;;5085421;28;21018;-71
2023/03/20 05:04:06;;;;;;;23.17;16.27;;;6.10;99.90;;;;;;5096053;28;20463;-68
2023/03/20 05:06:33;;;;;;;27.33;15.30;;;6.10;99.90;;;;;;5096868;28;20465;-69
2023/03/20 05:09:00;;;;;;;25.43;14.50;;;6.20;99.90;;;;;;5089504;28;20472;-71
2023/03/20 05:11:27;;;;;;;23.97;15.23;;;6.10;99.90;;;;;;5087059;28;20478;-72
2023/03/20 05:13:54;;;;;;;25.27;15.30;;;6.10;99.90;;;;;;5093217;28;21105;-70
2023/03/20 05:16:23;;;;;;;25.27;15.67;;;6.20;99.90;;;;;;5089013;28;20655;-68
2023/03/20 05:18:49;;;;;;;22.33;15.57;;;6.20;99.90;;;;;;5090910;28;21237;-71
2023/03/20 05:21:16;;;;;;;22.43;14.83;;;6.20;99.90;;;;;;5089201;28;20490;-69
2023/03/20 05:23:43;;;;;;;25.87;13.77;;;6.20;99.90;;;;;;5089355;28;20488;-71
2023/03/20 05:26:10;;;;;;;26.93;14.80;;;6.30;99.90;;;;;;5093205;28;21120;-72
2023/03/20 05:28:37;;;;;;;21.87;14.87;;;6.30;99.90;;;;;;5094562;28;20469;-71
2023/03/20 05:31:04;;;;;;;24.30;14.33;;;6.30;99.90;;;;;;5096089;28;20622;-71
2023/03/20 05:33:32;;;;;;;22.50;15.03;;;6.30;99.90;;;;;;5094717;28;20463;-71
2023/03/20 05:35:59;;;;;;;18.93;13.50;;;6.30;99.90;;;;;;5097319;28;21185;-69
2023/03/20 05:38:26;;;;;;;21.80;15.27;;;6.30;99.90;;;;;;5087770;28;20461;-72
2023/03/20 05:40:56;;;;;;;22.33;13.70;;;6.30;99.90;;;;;;5090655;28;20487;-73
2023/03/20 05:43:23;;;;;;;21.07;14.53;;;6.40;99.90;;;;;;5096508;28;20935;-71
2023/03/20 05:45:50;;;;;;;25.50;15.07;;;6.40;99.90;;;;;;5086957;28;20854;-71
2023/03/20 05:48:17;;;;;;;21.50;12.97;;;6.40;99.90;;;;;;5091162;28;20801;-70
2023/03/20 05:50:46;;;;;;;22.40;15.80;;;6.40;99.90;;;;;;5089404;28;20466;-71
2023/03/20 05:53:13;;;;;;;23.77;13.90;;;6.40;99.90;;;;;;5088418;28;20464;-69
2023/03/20 05:55:43;;;;;;;16.90;13.00;;;6.40;99.90;;;;;;5091801;28;20989;-69
2023/03/20 05:58:10;;;;;;;25.50;15.87;;;6.40;99.90;;;;;;5090422;28;20506;-69
2023/03/20 06:00:37;;;;;;;22.80;12.83;;;6.40;99.90;;;;;;5084557;28;20555;-70
2023/03/20 06:03:05;;;;;;;21.87;13.50;;;6.50;99.90;;;;;;5095411;28;20499;-68
2023/03/20 06:05:33;;;;;;;26.00;13.57;;;6.50;99.90;;;;;;5089722;28;20454;-71
2023/03/20 06:08:01;;;;;;;19.90;12.40;;;6.50;99.90;;;;;;5096202;28;20533;-70
2023/03/20 06:10:29;;;;;;;18.43;13.03;;;6.50;99.90;;;;;;5090360;28;20488;-73
2023/03/20 06:12:56;;;;;;;20.07;13.20;;;6.60;99.90;;;;;;5093555;28;22771;-73
2023/03/20 06:15:23;;;;;;;19.33;12.07;;;6.60;99.90;;;;;;5092988;28;20461;-71
2023/03/20 06:17:50;;;;;;;20.63;12.90;;;6.60;99.90;;;;;;5090985;28;20542;-73
2023/03/20 06:20:18;;;;;;;17.70;12.80;;;6.60;99.90;;;;;;5094385;28;21037;-69
2023/03/20 06:22:45;;;;;;;17.13;12.13;;;6.60;99.90;;;;;;5099306;28;20487;-69
2023/03/20 06:25:14;;;;;;;17.77;11.93;;;6.60;99.90;;;;;;5097019;28;20552;-68
2023/03/20 06:27:41;;;;;;;19.00;11.13;;;6.70;99.90;;;;;;5099129;28;20543;-67
2023/03/20 06:30:09;;;;;;;20.20;11.90;;;6.70;99.90;;;;;;5095733;28;20469;-69
2023/03/20 06:32:36;;;;;;;17.87;12.33;;;6.80;99.90;;;;;;5094602;28;20475;-69
2023/03/20 06:35:04;;;;;;;18.60;11.53;;;6.80;99.90;;;;;;5094301;28;20519;-71
2023/03/20 06:37:31;;;;;;;17.43;11.00;;;6.90;99.90;;;;;;5095982;28;20982;-69
2023/03/20 06:39:58;;;;;;;18.47;10.60;;;6.90;99.90;;;;;;5103407;28;20723;-71
2023/03/20 06:42:26;;;;;;;15.90;11.50;;;7.00;99.90;;;;;;5094824;28;20895;-69
2023/03/20 06:44:54;;;;;;;19.23;11.50;;;7.00;99.90;;;;;;5091276;28;20486;-69
2023/03/20 06:47:20;;;;;;;14.73;11.00;;;7.00;99.90;;;;;;5094791;28;20695;-69
2023/03/20 06:49:47;;;;;;;20.73;11.23;;;7.10;99.90;;;;;;5091923;28;20454;-69
2023/03/20 06:52:17;;;;;;;18.83;11.30;;;7.20;99.90;;;;;;5096766;28;20993;-70
2023/03/20 06:54:44;;;;;;;18.77;10.50;;;7.30;99.90;;;;;;5097931;28;20462;-69
2023/03/20 06:57:11;;;;;;;13.73;10.20;;;7.30;99.90;;;;;;5096607;28;20453;-71
2023/03/20 06:59:40;;;;;;;15.57;10.60;;;7.40;99.90;;;;;;5091805;28;20457;-70
2023/03/20 07:02:07;;;;;;;17.30;10.63;;;7.50;99.90;;;;;;5095819;28;20453;-71
2023/03/20 07:04:35;;;;;;;17.93;10.40;;;7.40;99.90;;;;;;5090911;28;20465;-70
2023/03/20 07:07:01;;;;;;;17.73;11.10;;;7.50;99.90;;;;;;5093695;28;20468;-70
2023/03/20 07:09:28;;;;;;;13.77;10.23;;;7.50;99.90;;;;;;5096985;28;20465;-69
2023/03/20 07:11:55;;;;;;;17.47;10.70;;;7.60;99.90;;;;;;5094219;28;20461;-71
2023/03/20 07:14:22;;;;;;;16.03;10.50;;;7.70;99.90;;;;;;5093178;28;20821;-70
2023/03/20 07:16:51;;;;;;;13.47;10.60;;;7.80;99.90;;;;;;5092910;28;20805;-71
2023/03/20 07:19:18;;;;;;;15.53;11.73;;;7.90;99.90;;;;;;5096295;28;20473;-70
2023/03/20 07:21:45;;;;;;;14.27;11.03;;;7.80;99.90;;;;;;5097182;28;20544;-71
2023/03/20 07:24:12;;;;;;;14.90;11.23;;;7.90;99.90;;;;;;5097090;28;20485;-69
2023/03/20 07:26:40;;;;;;;13.37;11.97;;;8.00;99.90;;;;;;5097471;28;21095;-71
2023/03/20 07:29:08;;;;;;;13.50;11.70;;;8.20;99.90;;;;;;5095656;28;20473;-69
2023/03/20 07:31:35;;;;;;;14.50;11.83;;;8.20;99.90;;;;;;5092137;28;20462;-68
2023/03/20 07:34:03;;;;;;;15.77;12.00;;;8.30;99.90;;;;;;5092473;28;20495;-69
2023/03/20 07:36:30;;;;;;;18.33;13.77;;;8.30;99.90;;;;;;5091628;28;20468;-70
2023/03/20 07:38:57;;;;;;;14.97;12.73;;;8.40;99.90;;;;;;5100922;28;20465;-68
2023/03/20 07:41:23;;;;;;;16.50;13.70;;;8.40;99.90;;;;;;5095683;28;20460;-69
2023/03/20 07:43:50;;;;;;;19.17;13.90;;;8.60;99.90;;;;;;5092830;28;20505;-69
2023/03/20 07:46:17;;;;;;;16.73;14.30;;;8.60;99.90;;;;;;5087533;28;20465;-68
2023/03/20 07:48:44;;;;;;;14.27;12.50;;;8.80;99.90;;;;;;5093523;28;20617;-69
2023/03/20 07:51:12;;;;;;;17.00;15.47;;;8.60;99.90;;;;;;5092933;28;20513;-71
2023/03/20 07:53:40;;;;;;;18.00;16.23;;;8.70;99.90;;;;;;5091762;28;20477;-70
2023/03/20 07:56:08;;;;;;;17.80;15.10;;;8.70;99.90;;;;;;5087952;28;20478;-69
2023/03/20 07:58:36;;;;;;;17.77;16.03;;;8.90;99.90;;;;;;5091421;28;20536;-71
2023/03/20 08:01:03;;;;;;;17.53;15.83;;;8.80;99.90;;;;;;5090498;28;20548;-72
2023/03/20 08:03:30;;;;;;;16.90;15.40;;;9.00;99.90;;;;;;5096981;28;20546;-70
2023/03/20 08:05:57;;;;;;;16.93;15.23;;;9.00;99.90;;;;;;5089664;28;20454;-71
2023/03/20 08:08:25;;;;;;;25.17;17.20;;;9.20;99.90;;;;;;5091748;28;20461;-71
2023/03/20 08:10:53;;;;;;;18.60;16.83;;;9.10;99.90;;;;;;5091351;28;20464;-70
2023/03/20 08:13:20;;;;;;;20.50;17.17;;;9.30;99.90;;;;;;5100347;28;20638;-70
2023/03/20 08:15:47;;;;;;;18.70;16.90;;;9.20;99.90;;;;;;5093935;28;20474;-71
2023/03/20 08:18:15;;;;;;;18.27;16.53;;;9.20;99.90;;;;;;5092128;28;20469;-71
2023/03/20 08:20:41;;;;;;;18.17;16.63;;;9.40;99.90;;;;;;5093357;28;20493;-70
2023/03/20 08:23:10;;;;;;;19.10;17.20;;;9.60;99.90;;;;;;5093694;28;21020;-69
2023/03/20 08:25:39;;;;;;;19.87;18.10;;;9.70;99.90;;;;;;5091803;28;21012;-72
2023/03/20 08:28:06;;;;;;;18.80;17.10;;;9.70;99.90;;;;;;5100391;28;20456;-69
2023/03/20 08:30:33;;;;;;;20.57;18.50;;;9.70;99.90;;;;;;5092644;28;20471;-69
2023/03/20 08:33:00;;;;;;;19.23;17.60;;;9.50;99.90;;;;;;5088055;28;21150;-69
2023/03/20 08:35:28;;;;;;;18.63;17.13;;;9.60;99.90;;;;;;5092250;28;20471;-69
2023/03/20 08:37:55;;;;;;;18.80;17.33;;;9.80;99.90;;;;;;5085736;28;20495;-69
2023/03/20 08:40:23;;;;;;;20.03;18.20;;;10.00;99.90;;;;;;5098125;28;20468;-69
2023/03/20 08:42:52;;;;;;;20.63;18.73;;;10.00;99.90;;;;;;5088692;28;20493;-69
2023/03/20 08:45:19;;;;;;;18.33;16.50;;;9.70;99.90;;;;;;5090342;28;20490;-69
2023/03/20 08:47:48;;;;;;;19.00;17.13;;;9.70;99.90;;;;;;5089714;28;21018;-69
2023/03/20 08:50:15;;;;;;;25.33;18.93;;;9.80;99.90;;;;;;5091985;28;20485;-69
2023/03/20 08:52:42;;;;;;;19.37;17.87;;;9.80;99.90;;;;;;5080232;28;20482;-69
2023/03/20 08:55:10;;;;;;;19.90;18.20;;;9.90;99.90;;;;;;5086302;28;20472;-70
2023/03/20 08:57:37;;;;;;;20.30;18.33;;;10.10;99.90;;;;;;5072324;28;20493;-72
2023/03/20 09:00:08;;;;;;;19.67;17.97;;;10.00;99.90;;;;;;5080706;28;20574;-71
2023/03/20 09:02:34;;;;;;;19.77;17.57;;;9.90;99.90;;;;;;5083045;28;20854;-71
2023/03/20 09:05:01;;;;;;;18.37;16.73;;;10.10;99.90;;;;;;5083836;28;20838;-69
2023/03/20 09:07:28;;;;;;;19.43;17.73;;;9.70;99.90;;;;;;5088547;28;20450;-72
2023/03/20 09:09:55;;;;;;;19.53;17.87;;;9.70;99.90;;;;;;5090107;28;20462;-70
2023/03/20 09:12:22;;;;;;;19.87;17.90;;;9.70;99.90;;;;;;5087484;28;20466;-72
2023/03/20 09:14:49;;;;;;;19.70;18.20;;;9.60;99.90;;;;;;5088208;28;20515;-70
2023/03/20 09:17:18;;;;;;;18.07;16.67;;;9.80;99.90;;;;;;5086134;28;20521;-70
2023/03/20 09:19:45;;;;;;;19.47;17.80;;;9.80;99.90;;;;;;5091710;28;20871;-70
2023/03/20 09:22:13;;;;;;;20.77;18.77;;;9.70;99.90;;;;;;5083813;28;20550;-70
2023/03/20 09:24:40;;;;;;;20.07;17.67;;;9.80;99.90;;;;;;5087074;28;20825;-70
2023/03/20 09:27:07;;;;;;;19.80;18.23;;;9.80;99.90;;;;;;5085482;28;20581;-71
2023/03/20 09:29:34;;;;;;;19.40;17.80;;;9.90;99.90;;;;;;5092163;28;20899;-70
2023/03/20 09:32:01;;;;;;;19.73;17.50;;;9.90;99.90;;;;;;5090393;28;20585;-70
2023/03/20 09:34:30;;;;;;;19.60;18.07;;;9.90;99.90;;;;;;5086797;28;20953;-70
2023/03/20 09:36:57;;;;;;;19.83;17.97;;;9.90;99.90;;;;;;5091633;28;20462;-70
2023/03/20 09:39:24;;;;;;;24.40;18.20;;;9.90;99.90;;;;;;5089720;28;20498;-70
2023/03/20 09:42:28;;;;;;;19.43;17.80;;;10.10;99.90;;;;;;5089719;28;20812;-72
2023/03/20 09:45:01;;;;;;;20.20;18.17;;;10.00;99.90;;;;;;5097065;28;20495;-70
2023/03/20 09:47:35;;;;;;;19.20;17.67;;;10.20;99.90;;;;;;5092418;28;20824;-70
2023/03/20 09:50:20;;;;;;;19.57;17.87;;;10.20;99.90;;;;;;5088121;28;20901;-70
2023/03/20 09:52:56;;;;;;;19.80;18.40;;;10.50;99.90;;;;;;5086709;28;20838;-70
2023/03/20 09:55:31;;;;;;;19.37;17.77;;;10.40;99.90;;;;;;5082337;28;20469;-70
2023/03/20 09:58:05;;;;;;;19.10;17.70;;;10.10;99.90;;;;;;5088150;28;20829;-70
2023/03/20 10:00:35;;;;;;;18.87;17.57;;;9.90;99.90;;;;;;5090215;28;20820;-70
2023/03/20 10:03:05;;;;;;;20.40;17.90;;;9.80;99.90;;;;;;5095466;28;20460;-70
2023/03/20 10:05:38;;;;;;;19.63;18.10;;;9.70;99.90;;;;;;5088842;28;20970;-72
2023/03/20 10:08:10;;;;;;;19.60;17.97;;;9.80;99.90;;;;;;5089689;28;20468;-72
2023/03/20 10:10:49;;;;;;;20.13;18.50;;;10.10;99.90;;;;;;5087542;28;20506;-71
2023/03/20 10:13:39;;;;;;;19.33;17.73;;;10.20;99.90;;;;;;5089706;28;20998;-70
2023/03/20 10:16:14;;;;;;;18.60;17.07;;;10.10;99.90;;;;;;5090566;28;20489;-70
2023/03/20 10:18:46;;;;;;;18.40;17.20;;;10.20;99.90;;;;;;5085126;28;21294;-71
2023/03/20 10:21:17;;;;;;;18.40;17.10;;;10.00;99.90;;;;;;5089958;28;20812;-71
2023/03/20 10:23:52;;;;;;;17.73;16.23;;;10.00;99.90;;;;;;5084569;28;20534;-70
2023/03/20 10:26:22;;;;;;;17.63;16.37;;;9.90;99.90;;;;;;5087525;28;20480;-72
2023/03/20 10:28:54;;;;;;;17.70;16.37;;;9.90;99.90;;;;;;5097637;28;20464;-71
2023/03/20 10:31:43;;;;;;;18.20;16.47;;;9.70;99.90;;;;;;5094411;28;21009;-70
2023/03/20 10:34:26;;;;;;;17.70;16.50;;;9.80;99.90;;;;;;5092755;28;20466;-70
2023/03/20 10:37:11;;;;;;;18.30;17.20;;;9.80;99.90;;;;;;5090922;28;20484;-72
2023/03/20 10:39:49;;;;;;;17.00;15.90;;;9.80;99.90;;;;;;5087873;28;20522;-72
2023/03/20 10:42:19;;;;;;;17.93;16.53;;;9.70;99.90;;;;;;5087936;28;20485;-70
2023/03/20 10:44:50;;;;;;;18.47;17.10;;;9.60;99.90;;;;;;5087179;28;20520;-70
2023/03/20 10:47:20;;;;;;;17.57;16.10;;;9.80;99.90;;;;;;5089538;28;20460;-72
2023/03/20 10:49:52;;;;;;;18.70;16.97;;;9.80;99.90;;;;;;5093062;28;20469;-72
2023/03/20 10:52:25;;;;;;;17.17;16.00;;;9.60;99.90;;;;;;5091353;28;20488;-70
2023/03/20 10:54:56;;;;;;;18.70;16.90;;;9.30;99.90;;;;;;5088870;28;20519;-70
2023/03/20 10:57:25;;;;;;;17.20;15.67;;;9.50;99.90;;;;;;5093001;28;20465;-73
2023/03/20 10:59:54;;;;;;;17.00;15.80;;;9.50;99.90;;;;;;5080652;28;20538;-70
2023/03/20 11:02:22;;;;;;;18.60;17.20;;;9.30;99.90;;;;;;5087837;28;20987;-69
2023/03/20 11:04:49;;;;;;;20.03;18.20;;;9.20;99.90;;;;;;5088585;28;20489;-69
2023/03/20 11:07:23;;;;;;;18.83;17.50;;;9.10;99.90;;;;;;5087889;28;20466;-68
2023/03/20 11:10:10;;;;;;;19.80;18.20;;;9.00;99.90;;;;;;5088598;28;20457;-71
2023/03/20 11:12:39;;;;;;;20.93;19.60;;;9.00;99.90;;;;;;5091282;28;20465;-70
2023/03/20 11:15:20;;;;;;;23.67;21.67;;;8.90;99.90;;;;;;5088171;28;20454;-69
2023/03/20 11:17:55;;;;;;;22.97;20.60;;;8.80;99.90;;;;;;5087951;28;20473;-68
2023/03/20 11:20:22;;;;;;;22.80;21.00;;;8.60;99.90;;;;;;5090771;28;20576;-67
2023/03/20 11:22:57;;;;;;;22.33;20.30;;;8.50;99.90;;;;;;5088352;28;20518;-68
2023/03/20 11:25:29;;;;;;;21.20;19.30;;;8.70;99.90;;;;;;5087912;28;20523;-69
2023/03/20 11:27:58;;;;;;;20.70;18.90;;;8.60;99.90;;;;;;5089363;28;20553;-69
2023/03/20 11:30:25;;;;;;;20.73;18.80;;;8.70;99.90;;;;;;5084321;28;20464;-69
2023/03/20 11:32:56;;;;;;;20.63;19.03;;;8.90;99.90;;;;;;5092832;28;21303;-68
2023/03/20 11:35:31;;;;;;;20.20;18.90;;;8.70;99.90;;;;;;5091050;28;20450;-71
2023/03/20 11:38:13;;;;;;;21.10;19.50;;;8.40;99.90;;;;;;5091381;28;20463;-71
2023/03/20 11:40:40;;;;;;;21.97;19.97;;;8.10;99.90;;;;;;5089674;28;20524;-69
2023/03/20 11:43:12;;;;;;;20.43;18.90;;;8.20;99.90;;;;;;5093418;28;21087;-71
2023/03/20 11:45:41;;;;;;;20.30;18.40;;;8.30;99.90;;;;;;5091948;28;20602;-68
2023/03/20 11:48:17;;;;;;;18.40;17.00;;;8.30;99.90;;;;;;5083296;28;20864;-71
2023/03/20 11:50:48;;;;;;;19.27;17.00;;;8.40;99.90;;;;;;5089350;28;21039;-69
2023/03/20 11:53:24;;;;;;;19.80;18.03;;;8.50;99.90;;;;;;5087340;28;20490;-71
2023/03/20 11:56:03;;;;;;;18.77;17.37;;;8.50;99.90;;;;;;5085130;28;20745;-68
2023/03/20 11:58:30;;;;;;;19.70;18.10;;;8.60;99.90;;;;;;5090444;28;20880;-68
2023/03/20 12:00:57;;;;;;;20.57;18.77;;;8.70;99.90;;;;;;5085716;28;21018;-69
2023/03/20 12:03:41;;;;;;;20.13;18.30;;;8.80;99.90;;;;;;5088303;28;20598;-68
2023/03/20 12:06:15;;;;;;;19.50;17.80;;;8.60;99.90;;;;;;5087773;28;20498;-68
2023/03/20 12:08:51;;;;;;;20.47;18.43;;;8.90;99.90;;;;;;5080700;28;20465;-70
2023/03/20 12:11:36;;;;;;;16.60;15.30;;;9.10;99.90;;;;;;5084507;28;20463;-69
2023/03/20 12:14:07;;;;;;;17.07;15.40;;;9.30;99.90;;;;;;5082337;28;20466;-69
2023/03/20 12:16:37;;;;;;;14.77;13.30;;;9.40;99.90;;;;;;5087402;28;20453;-70
2023/03/20 12:19:12;;;;;;;14.70;12.43;;;9.50;99.90;;;;;;5089409;28;20449;-70
2023/03/20 12:21:44;;;;;;;14.23;11.53;;;9.70;99.90;;;;;;5094264;28;20457;-69
2023/03/20 12:24:17;;;;;;;13.90;12.77;;;9.90;99.90;;;;;;5089757;28;20470;-70
2023/03/20 12:26:50;;;;;;;15.53;12.40;;;9.90;99.90;;;;;;5088207;28;20574;-68
2023/03/20 12:29:23;;;;;;;14.97;13.40;;;10.30;99.90;;;;;;5087283;28;20457;-70
2023/03/20 12:31:55;;;;;;;15.20;14.07;;;10.30;99.90;;;;;;5085866;28;20458;-68
2023/03/20 12:34:25;;;;;;;13.97;13.07;;;10.40;99.90;;;;;;5088563;28;20462;-69
2023/03/20 12:36:53;;;;;;;14.90;13.67;;;10.70;99.90;;;;;;5091632;28;20453;-68
2023/03/20 12:39:23;;;;;;;15.57;14.10;;;10.70;99.90;;;;;;5089143;28;20461;-69
2023/03/20 12:42:03;;;;;;;17.93;15.70;;;10.60;99.90;;;;;;5086751;28;20575;-71
2023/03/20 12:44:41;;;;;;;16.77;15.30;;;10.30;99.90;;;;;;5085307;28;20489;-68
2023/03/20 12:47:31;;;;;;;16.40;15.10;;;10.30;99.90;;;;;;5084905;28;20454;-71
2023/03/20 12:50:17;;;;;;;17.77;16.37;;;10.20;99.90;;;;;;5084566;28;20461;-72
2023/03/20 12:52:50;;;;;;;16.50;15.20;;;10.50;99.90;;;;;;5085525;28;20514;-68